Airfield :
LOGIN :

Register | Disclaimer

   EN    FR    IT 

 










Legend :    VFR   Marginal VFR   IFR   Intensive IFR   Very Intensive IFR
Visi :
Ceiling :
>= 8 km
>= 3000ft
5 to 8 km
1000 to 3000 ft
1500m to 5 km
500 to 1000 ft
800 to 1500m
200 to 500 ft
< 800m
< 200 ft
Symbols :   Thunderstorms  Fog  Heavy snow  Heavy precipitations  Wind > 20 kt
SIGMETs :     Misc.  Thunderstorms  Icing  Turbulence  Mountain Waves  Volcanic Ashes






- Airport Elevation : 1504 ft
- IATA code : PNA


LEPP - Noain Pamplona

CURRENT METAR :
  • 260130Z AUTO 05003KT 9999 FEW045 08/07 Q1012

EXPIRED METARs :
  • 260100Z AUTO 10004KT 050V120 9999 -RA NSC 08/07 Q1011
  • 260030Z AUTO 14003KT 9999 -RA FEW036 08/07 Q1011
  • 260000Z AUTO 17001KT 9999 -RA FEW036 SCT043 08/07 Q1012
  • 252330Z AUTO VRB02KT 9999 -RA SCT034 BKN040 BKN050 08/07 Q1012
  • 252300Z 17004KT 9999 FEW010 BKN048 08/07 Q1011

TAF TAF LEPP
Valid from the 25 at 21:00 until the 26 at 21:00 UTC


252000Z 2521/2621 33007KT 9999 SCT012 BKN030 TX12/2614Z TN05/2607Z
TEMPO 2521/2603 RA
PROB30
TEMPO 2521/2603 3000 SHRA SCT030TCU
PROB30
TEMPO 2606/2621 RA SHRA SCT030TCU
TEMPO 2611/2617 33017KT



MET'MAP, your aeronautical weather chart ! - Copyright ORBIFLY December 2007 - Disclaimer

ORBIFLY MET'MAP TEAM :

Programming & Development : Alexandra Zaïnal
Concept & original design : Baudouin d'Aumeries
Assistance for programming : Marc-Olivier Méhu
Technical & hardware support : Manuel Goepfert

Contact : metmap@orbifly.com




SOURCES & CREDITS :

   NOAA